Pleasanthill, Nebraska
Current Conditions -  °F | °C
As of 12:41 AM on Friday 31 Oct 2014 (Local Time) from KLNK Reporting Station
Overcast Overcast  
Wind Chill: 33°   Ceiling: 2900
Heat Index: 42°   Visibility: 10mi
Dew Point: 30°   Wind: 23mph
Humidity: 62%   Direction: 20°NNE
Pressure: 30.41"   Gusts: 31mph
Location:  40.6539°N, 97.0844°W
Report Text: KLNK 310541Z AUTO 02020G27KT 10SM OVC029 06/M01 A3041 RMK AO2 PK WND 01029/0508 T00561011
Loading
Personal Weather Stations






























Interactive Weather Map
Tropical Storm Tracking
New forecast layout! Learn more

10-Day Weather Forecast

Advertisements
Track Severe Weather on mobile